sensor_id;sensor_type;location;lat;lon;timestamp;P1;durP1;ratioP1;P2;durP2;ratioP2
7737;SDS011;29398;45.328;5.558;2023-06-14T00:00:52;1.27;;;1.17;;
7737;SDS011;29398;45.328;5.558;2023-06-14T00:01:58;2.28;;;1.30;;
7737;SDS011;29398;45.328;5.558;2023-06-14T00:03:00;1.73;;;1.27;;
7737;SDS011;29398;45.328;5.558;2023-06-14T00:04:02;1.70;;;1.58;;
7737;SDS011;29398;45.328;5.558;2023-06-14T00:05:05;2.75;;;1.40;;
7737;SDS011;29398;45.328;5.558;2023-06-14T00:06:06;2.47;;;1.50;;
7737;SDS011;29398;45.328;5.558;2023-06-14T00:07:09;1.25;;;1.20;;
7737;SDS011;29398;45.328;5.558;2023-06-14T00:08:10;1.80;;;1.30;;
7737;SDS011;29398;45.328;5.558;2023-06-14T00:09:12;1.10;;;1.00;;
7737;SDS011;29398;45.328;5.558;2023-06-14T00:10:13;2.45;;;1.27;;
7737;SDS011;29398;45.328;5.558;2023-06-14T00:11:16;2.00;;;1.02;;
7737;SDS011;29398;45.328;5.558;2023-06-14T00:12:18;1.08;;;0.98;;
7737;SDS011;29398;45.328;5.558;2023-06-14T00:13:20;1.25;;;1.13;;
7737;SDS011;29398;45.328;5.558;2023-06-14T00:14:21;1.42;;;1.20;;
7737;SDS011;29398;45.328;5.558;2023-06-14T00:15:23;1.85;;;1.13;;
7737;SDS011;29398;45.328;5.558;2023-06-14T00:16:24;2.53;;;1.50;;
7737;SDS011;29398;45.328;5.558;2023-06-14T00:17:28;1.80;;;1.20;;
7737;SDS011;29398;45.328;5.558;2023-06-14T00:18:30;1.88;;;1.10;;
7737;SDS011;29398;45.328;5.558;2023-06-14T00:19:32;2.45;;;1.15;;
7737;SDS011;29398;45.328;5.558;2023-06-14T00:20:35;1.55;;;0.80;;
7737;SDS011;29398;45.328;5.558;2023-06-14T00:21:38;1.17;;;1.08;;
7737;SDS011;29398;45.328;5.558;2023-06-14T00:22:39;2.63;;;1.20;;
7737;SDS011;29398;45.328;5.558;2023-06-14T00:23:41;1.23;;;1.15;;
7737;SDS011;29398;45.328;5.558;2023-06-14T00:24:42;1.83;;;1.00;;
7737;SDS011;29398;45.328;5.558;2023-06-14T00:25:44;1.15;;;1.00;;
7737;SDS011;29398;45.328;5.558;2023-06-14T00:26:46;1.63;;;1.15;;
7737;SDS011;29398;45.328;5.558;2023-06-14T00:27:49;1.38;;;1.15;;
7737;SDS011;29398;45.328;5.558;2023-06-14T00:28:50;2.80;;;1.33;;
7737;SDS011;29398;45.328;5.558;2023-06-14T00:29:52;1.38;;;1.02;;
7737;SDS011;29398;45.328;5.558;2023-06-14T00:30:53;1.98;;;1.20;;
7737;SDS011;29398;45.328;5.558;2023-06-14T00:31:55;1.00;;;0.90;;
7737;SDS011;29398;45.328;5.558;2023-06-14T00:32:57;2.15;;;1.27;;
7737;SDS011;29398;45.328;5.558;2023-06-14T00:34:00;3.30;;;1.50;;
7737;SDS011;29398;45.328;5.558;2023-06-14T00:35:01;1.30;;;1.20;;
7737;SDS011;29398;45.328;5.558;2023-06-14T00:36:03;1.58;;;1.00;;
7737;SDS011;29398;45.328;5.558;2023-06-14T00:37:05;2.25;;;1.40;;
7737;SDS011;29398;45.328;5.558;2023-06-14T00:38:07;1.65;;;1.00;;
7737;SDS011;29398;45.328;5.558;2023-06-14T00:39:08;2.13;;;1.10;;
7737;SDS011;29398;45.328;5.558;2023-06-14T00:40:11;1.20;;;1.10;;
7737;SDS011;29398;45.328;5.558;2023-06-14T00:41:12;2.85;;;1.50;;
7737;SDS011;29398;45.328;5.558;2023-06-14T00:42:23;1.00;;;0.90;;
7737;SDS011;29398;45.328;5.558;2023-06-14T00:43:25;1.98;;;1.50;;
7737;SDS011;29398;45.328;5.558;2023-06-14T00:44:27;1.20;;;1.10;;
7737;SDS011;29398;45.328;5.558;2023-06-14T00:45:30;1.77;;;1.30;;
7737;SDS011;29398;45.328;5.558;2023-06-14T00:46:36;3.15;;;1.08;;
7737;SDS011;29398;45.328;5.558;2023-06-14T00:47:37;2.35;;;1.20;;
7737;SDS011;29398;45.328;5.558;2023-06-14T00:48:42;1.42;;;1.17;;
7737;SDS011;29398;45.328;5.558;2023-06-14T00:49:45;1.02;;;0.95;;
7737;SDS011;29398;45.328;5.558;2023-06-14T00:50:48;1.23;;;1.13;;
7737;SDS011;29398;45.328;5.558;2023-06-14T00:51:50;1.60;;;1.05;;
7737;SDS011;29398;45.328;5.558;2023-06-14T00:52:53;1.65;;;1.10;;
7737;SDS011;29398;45.328;5.558;2023-06-14T00:53:54;1.52;;;1.20;;
7737;SDS011;29398;45.328;5.558;2023-06-14T00:54:56;1.52;;;1.17;;
7737;SDS011;29398;45.328;5.558;2023-06-14T00:55:57;1.48;;;1.10;;
7737;SDS011;29398;45.328;5.558;2023-06-14T00:56:59;1.42;;;1.15;;
7737;SDS011;29398;45.328;5.558;2023-06-14T00:58:00;1.40;;;1.05;;
7737;SDS011;29398;45.328;5.558;2023-06-14T00:59:02;1.20;;;1.10;;
7737;SDS011;29398;45.328;5.558;2023-06-14T01:00:04;2.03;;;1.25;;
7737;SDS011;29398;45.328;5.558;2023-06-14T01:01:09;1.25;;;1.10;;
7737;SDS011;29398;45.328;5.558;2023-06-14T01:02:11;1.90;;;1.23;;
7737;SDS011;29398;45.328;5.558;2023-06-14T01:03:15;1.90;;;1.23;;
7737;SDS011;29398;45.328;5.558;2023-06-14T01:04:24;1.25;;;1.10;;
7737;SDS011;29398;45.328;5.558;2023-06-14T01:05:26;1.50;;;1.27;;
7737;SDS011;29398;45.328;5.558;2023-06-14T01:06:29;1.38;;;1.10;;
7737;SDS011;29398;45.328;5.558;2023-06-14T01:07:45;3.10;;;1.10;;
7737;SDS011;29398;45.328;5.558;2023-06-14T01:08:57;2.15;;;1.10;;
7737;SDS011;29398;45.328;5.558;2023-06-14T01:10:09;1.55;;;1.23;;
7737;SDS011;29398;45.328;5.558;2023-06-14T01:11:28;1.00;;;1.00;;
7737;SDS011;29398;45.328;5.558;2023-06-14T01:12:36;1.67;;;1.40;;
7737;SDS011;29398;45.328;5.558;2023-06-14T01:14:49;3.00;;;1.23;;
7737;SDS011;29398;45.328;5.558;2023-06-14T01:15:53;1.40;;;1.15;;
7737;SDS011;29398;45.328;5.558;2023-06-14T01:16:56;1.40;;;0.95;;
7737;SDS011;29398;45.328;5.558;2023-06-14T01:18:00;3.90;;;1.60;;
7737;SDS011;29398;45.328;5.558;2023-06-14T01:19:03;1.77;;;1.23;;
7737;SDS011;29398;45.328;5.558;2023-06-14T01:20:08;2.13;;;1.30;;
7737;SDS011;29398;45.328;5.558;2023-06-14T01:21:20;1.05;;;0.95;;
7737;SDS011;29398;45.328;5.558;2023-06-14T01:22:24;1.23;;;1.02;;
7737;SDS011;29398;45.328;5.558;2023-06-14T01:23:30;2.25;;;1.33;;
7737;SDS011;29398;45.328;5.558;2023-06-14T01:24:34;1.27;;;1.10;;
7737;SDS011;29398;45.328;5.558;2023-06-14T01:25:35;1.38;;;1.23;;
7737;SDS011;29398;45.328;5.558;2023-06-14T01:26:38;1.88;;;1.17;;
7737;SDS011;29398;45.328;5.558;2023-06-14T01:27:46;2.97;;;1.40;;
7737;SDS011;29398;45.328;5.558;2023-06-14T01:28:49;2.42;;;1.30;;
7737;SDS011;29398;45.328;5.558;2023-06-14T01:29:52;1.92;;;1.48;;
7737;SDS011;29398;45.328;5.558;2023-06-14T01:30:56;2.13;;;1.20;;
7737;SDS011;29398;45.328;5.558;2023-06-14T01:32:00;2.20;;;1.30;;
7737;SDS011;29398;45.328;5.558;2023-06-14T01:33:04;2.38;;;1.30;;
7737;SDS011;29398;45.328;5.558;2023-06-14T01:34:06;2.75;;;1.20;;
7737;SDS011;29398;45.328;5.558;2023-06-14T01:35:09;2.38;;;1.73;;
7737;SDS011;29398;45.328;5.558;2023-06-14T01:36:10;2.88;;;1.60;;
7737;SDS011;29398;45.328;5.558;2023-06-14T01:37:13;1.77;;;1.38;;
7737;SDS011;29398;45.328;5.558;2023-06-14T01:38:15;3.78;;;1.30;;
7737;SDS011;29398;45.328;5.558;2023-06-14T01:39:20;1.52;;;1.30;;
7737;SDS011;29398;45.328;5.558;2023-06-14T01:40:22;3.53;;;1.10;;
7737;SDS011;29398;45.328;5.558;2023-06-14T01:41:26;1.60;;;1.10;;
7737;SDS011;29398;45.328;5.558;2023-06-14T01:42:28;1.23;;;1.00;;
7737;SDS011;29398;45.328;5.558;2023-06-14T01:43:33;1.70;;;1.30;;
7737;SDS011;29398;45.328;5.558;2023-06-14T01:44:35;1.83;;;1.50;;
7737;SDS011;29398;45.328;5.558;2023-06-14T01:45:37;2.55;;;1.50;;
7737;SDS011;29398;45.328;5.558;2023-06-14T01:46:40;3.03;;;1.30;;
7737;SDS011;29398;45.328;5.558;2023-06-14T01:47:43;1.50;;;1.40;;
7737;SDS011;29398;45.328;5.558;2023-06-14T01:48:45;1.50;;;1.40;;
7737;SDS011;29398;45.328;5.558;2023-06-14T01:49:47;2.78;;;1.30;;
7737;SDS011;29398;45.328;5.558;2023-06-14T01:50:48;1.20;;;1.10;;
7737;SDS011;29398;45.328;5.558;2023-06-14T01:51:51;3.55;;;1.33;;
7737;SDS011;29398;45.328;5.558;2023-06-14T01:52:52;1.55;;;1.45;;
7737;SDS011;29398;45.328;5.558;2023-06-14T01:53:54;2.42;;;1.42;;
7737;SDS011;29398;45.328;5.558;2023-06-14T01:54:56;2.85;;;1.17;;
7737;SDS011;29398;45.328;5.558;2023-06-14T01:56:02;1.55;;;1.20;;
7737;SDS011;29398;45.328;5.558;2023-06-14T01:57:05;2.75;;;1.50;;
7737;SDS011;29398;45.328;5.558;2023-06-14T01:58:07;4.43;;;1.90;;
7737;SDS011;29398;45.328;5.558;2023-06-14T01:59:08;1.67;;;1.30;;
7737;SDS011;29398;45.328;5.558;2023-06-14T02:00:11;3.05;;;1.48;;
7737;SDS011;29398;45.328;5.558;2023-06-14T02:01:13;1.52;;;1.40;;
7737;SDS011;29398;45.328;5.558;2023-06-14T02:02:19;1.35;;;1.25;;
7737;SDS011;29398;45.328;5.558;2023-06-14T02:03:20;1.65;;;1.30;;
7737;SDS011;29398;45.328;5.558;2023-06-14T02:04:23;1.88;;;1.40;;
7737;SDS011;29398;45.328;5.558;2023-06-14T02:05:24;1.55;;;1.40;;
7737;SDS011;29398;45.328;5.558;2023-06-14T02:06:26;1.40;;;1.30;;
7737;SDS011;29398;45.328;5.558;2023-06-14T02:07:27;2.83;;;1.50;;
7737;SDS011;29398;45.328;5.558;2023-06-14T02:08:29;1.30;;;1.20;;
7737;SDS011;29398;45.328;5.558;2023-06-14T02:09:30;3.28;;;1.80;;
7737;SDS011;29398;45.328;5.558;2023-06-14T02:10:34;2.38;;;1.70;;
7737;SDS011;29398;45.328;5.558;2023-06-14T02:11:35;5.22;;;1.50;;
7737;SDS011;29398;45.328;5.558;2023-06-14T02:12:37;3.55;;;1.48;;
7737;SDS011;29398;45.328;5.558;2023-06-14T02:13:38;2.85;;;1.30;;
7737;SDS011;29398;45.328;5.558;2023-06-14T02:14:40;1.33;;;1.05;;
7737;SDS011;29398;45.328;5.558;2023-06-14T02:15:42;1.85;;;1.27;;
7737;SDS011;29398;45.328;5.558;2023-06-14T02:16:44;2.35;;;1.33;;
7737;SDS011;29398;45.328;5.558;2023-06-14T02:17:49;1.85;;;1.25;;
7737;SDS011;29398;45.328;5.558;2023-06-14T02:18:51;1.20;;;1.10;;
7737;SDS011;29398;45.328;5.558;2023-06-14T02:19:52;1.65;;;1.30;;
7737;SDS011;29398;45.328;5.558;2023-06-14T02:20:56;3.17;;;1.27;;
7737;SDS011;29398;45.328;5.558;2023-06-14T02:21:57;1.17;;;1.13;;
7737;SDS011;29398;45.328;5.558;2023-06-14T02:22:59;4.95;;;1.55;;
7737;SDS011;29398;45.328;5.558;2023-06-14T02:24:00;1.73;;;1.30;;
7737;SDS011;29398;45.328;5.558;2023-06-14T02:25:02;1.58;;;1.40;;
7737;SDS011;29398;45.328;5.558;2023-06-14T02:26:05;7.80;;;1.50;;
7737;SDS011;29398;45.328;5.558;2023-06-14T02:27:08;2.10;;;1.50;;
7737;SDS011;29398;45.328;5.558;2023-06-14T02:28:10;4.13;;;1.83;;
7737;SDS011;29398;45.328;5.558;2023-06-14T02:29:13;3.10;;;1.40;;
7737;SDS011;29398;45.328;5.558;2023-06-14T02:30:15;4.28;;;1.90;;
7737;SDS011;29398;45.328;5.558;2023-06-14T02:31:17;2.05;;;1.52;;
7737;SDS011;29398;45.328;5.558;2023-06-14T02:32:18;3.47;;;1.38;;
7737;SDS011;29398;45.328;5.558;2023-06-14T02:33:20;1.70;;;1.42;;
7737;SDS011;29398;45.328;5.558;2023-06-14T02:34:22;2.00;;;1.55;;
7737;SDS011;29398;45.328;5.558;2023-06-14T02:35:24;2.20;;;1.80;;
7737;SDS011;29398;45.328;5.558;2023-06-14T02:36:26;2.70;;;1.38;;
7737;SDS011;29398;45.328;5.558;2023-06-14T02:37:29;1.85;;;1.23;;
7737;SDS011;29398;45.328;5.558;2023-06-14T02:38:30;2.60;;;1.30;;
7737;SDS011;29398;45.328;5.558;2023-06-14T02:39:33;2.20;;;1.45;;
7737;SDS011;29398;45.328;5.558;2023-06-14T02:40:34;2.70;;;1.45;;
7737;SDS011;29398;45.328;5.558;2023-06-14T02:41:38;1.95;;;1.20;;
7737;SDS011;29398;45.328;5.558;2023-06-14T02:42:39;1.52;;;1.42;;
7737;SDS011;29398;45.328;5.558;2023-06-14T02:43:41;1.60;;;1.48;;
7737;SDS011;29398;45.328;5.558;2023-06-14T02:44:42;2.08;;;1.40;;
7737;SDS011;29398;45.328;5.558;2023-06-14T02:45:45;2.72;;;1.50;;
7737;SDS011;29398;45.328;5.558;2023-06-14T02:46:48;1.95;;;1.70;;
7737;SDS011;29398;45.328;5.558;2023-06-14T02:47:51;4.78;;;1.70;;
7737;SDS011;29398;45.328;5.558;2023-06-14T02:48:52;2.45;;;1.40;;
7737;SDS011;29398;45.328;5.558;2023-06-14T02:49:54;2.78;;;1.70;;
7737;SDS011;29398;45.328;5.558;2023-06-14T02:50:55;1.48;;;1.38;;
7737;SDS011;29398;45.328;5.558;2023-06-14T02:51:57;3.88;;;1.30;;
7737;SDS011;29398;45.328;5.558;2023-06-14T02:52:58;1.90;;;1.45;;
7737;SDS011;29398;45.328;5.558;2023-06-14T02:54:01;2.85;;;1.48;;
7737;SDS011;29398;45.328;5.558;2023-06-14T02:55:02;2.33;;;1.40;;
7737;SDS011;29398;45.328;5.558;2023-06-14T02:56:06;1.60;;;1.50;;
7737;SDS011;29398;45.328;5.558;2023-06-14T02:57:09;4.03;;;1.38;;
7737;SDS011;29398;45.328;5.558;2023-06-14T02:58:12;1.38;;;1.27;;
7737;SDS011;29398;45.328;5.558;2023-06-14T02:59:13;2.92;;;1.55;;
7737;SDS011;29398;45.328;5.558;2023-06-14T03:00:16;2.15;;;1.40;;
7737;SDS011;29398;45.328;5.558;2023-06-14T03:01:20;1.60;;;1.40;;
7737;SDS011;29398;45.328;5.558;2023-06-14T03:02:24;2.50;;;1.50;;
7737;SDS011;29398;45.328;5.558;2023-06-14T03:03:25;2.25;;;1.10;;
7737;SDS011;29398;45.328;5.558;2023-06-14T03:04:29;3.25;;;1.20;;
7737;SDS011;29398;45.328;5.558;2023-06-14T03:05:35;1.35;;;1.25;;
7737;SDS011;29398;45.328;5.558;2023-06-14T03:06:41;1.60;;;1.30;;
7737;SDS011;29398;45.328;5.558;2023-06-14T03:07:45;2.15;;;1.63;;
7737;SDS011;29398;45.328;5.558;2023-06-14T03:08:48;2.00;;;1.30;;
7737;SDS011;29398;45.328;5.558;2023-06-14T03:09:50;1.40;;;1.30;;
7737;SDS011;29398;45.328;5.558;2023-06-14T03:10:53;2.28;;;1.45;;
7737;SDS011;29398;45.328;5.558;2023-06-14T03:11:54;1.20;;;1.10;;
7737;SDS011;29398;45.328;5.558;2023-06-14T03:12:57;2.55;;;1.48;;
7737;SDS011;29398;45.328;5.558;2023-06-14T03:13:58;2.30;;;1.27;;
7737;SDS011;29398;45.328;5.558;2023-06-14T03:15:04;2.28;;;1.30;;
7737;SDS011;29398;45.328;5.558;2023-06-14T03:16:09;2.42;;;1.50;;
7737;SDS011;29398;45.328;5.558;2023-06-14T03:17:13;1.77;;;1.48;;
7737;SDS011;29398;45.328;5.558;2023-06-14T03:18:17;3.20;;;1.58;;
7737;SDS011;29398;45.328;5.558;2023-06-14T03:19:20;1.58;;;1.40;;
7737;SDS011;29398;45.328;5.558;2023-06-14T03:20:22;1.90;;;1.42;;
7737;SDS011;29398;45.328;5.558;2023-06-14T03:21:24;1.55;;;1.30;;
7737;SDS011;29398;45.328;5.558;2023-06-14T03:22:30;2.47;;;1.48;;
7737;SDS011;29398;45.328;5.558;2023-06-14T03:23:34;3.65;;;1.77;;
7737;SDS011;29398;45.328;5.558;2023-06-14T03:24:37;2.05;;;1.67;;
7737;SDS011;29398;45.328;5.558;2023-06-14T03:25:44;1.80;;;1.33;;
7737;SDS011;29398;45.328;5.558;2023-06-14T03:26:47;1.65;;;1.55;;
7737;SDS011;29398;45.328;5.558;2023-06-14T03:27:48;3.65;;;1.55;;
7737;SDS011;29398;45.328;5.558;2023-06-14T03:28:52;1.52;;;1.25;;
7737;SDS011;29398;45.328;5.558;2023-06-14T03:29:55;1.92;;;1.50;;
7737;SDS011;29398;45.328;5.558;2023-06-14T03:30:57;3.65;;;1.33;;
7737;SDS011;29398;45.328;5.558;2023-06-14T03:32:00;2.10;;;1.17;;
7737;SDS011;29398;45.328;5.558;2023-06-14T03:33:09;3.67;;;1.98;;
7737;SDS011;29398;45.328;5.558;2023-06-14T03:34:13;2.65;;;1.40;;
7737;SDS011;29398;45.328;5.558;2023-06-14T03:35:16;2.83;;;1.67;;
7737;SDS011;29398;45.328;5.558;2023-06-14T03:36:18;2.40;;;1.45;;
7737;SDS011;29398;45.328;5.558;2023-06-14T03:37:20;2.08;;;1.45;;
7737;SDS011;29398;45.328;5.558;2023-06-14T03:38:22;2.25;;;1.50;;
7737;SDS011;29398;45.328;5.558;2023-06-14T03:39:25;2.17;;;1.50;;
7737;SDS011;29398;45.328;5.558;2023-06-14T03:40:26;2.78;;;1.60;;
7737;SDS011;29398;45.328;5.558;2023-06-14T03:41:34;2.80;;;1.40;;
7737;SDS011;29398;45.328;5.558;2023-06-14T03:42:35;3.70;;;1.70;;
7737;SDS011;29398;45.328;5.558;2023-06-14T03:43:37;2.13;;;1.60;;
7737;SDS011;29398;45.328;5.558;2023-06-14T03:44:40;5.38;;;1.67;;
7737;SDS011;29398;45.328;5.558;2023-06-14T03:45:42;3.95;;;2.17;;
7737;SDS011;29398;45.328;5.558;2023-06-14T03:46:44;3.28;;;1.50;;
7737;SDS011;29398;45.328;5.558;2023-06-14T03:47:46;3.53;;;1.70;;
7737;SDS011;29398;45.328;5.558;2023-06-14T03:48:48;1.83;;;1.70;;
7737;SDS011;29398;45.328;5.558;2023-06-14T03:49:50;2.72;;;1.73;;
7737;SDS011;29398;45.328;5.558;2023-06-14T03:50:52;3.47;;;1.60;;
7737;SDS011;29398;45.328;5.558;2023-06-14T03:51:55;1.80;;;1.70;;
7737;SDS011;29398;45.328;5.558;2023-06-14T03:52:58;2.22;;;1.70;;
7737;SDS011;29398;45.328;5.558;2023-06-14T03:54:01;4.03;;;1.75;;
7737;SDS011;29398;45.328;5.558;2023-06-14T03:55:03;4.43;;;1.55;;
7737;SDS011;29398;45.328;5.558;2023-06-14T03:56:07;3.38;;;1.60;;
7737;SDS011;29398;45.328;5.558;2023-06-14T03:57:14;3.75;;;1.60;;
7737;SDS011;29398;45.328;5.558;2023-06-14T03:58:17;3.92;;;1.67;;
7737;SDS011;29398;45.328;5.558;2023-06-14T03:59:19;3.30;;;1.52;;
7737;SDS011;29398;45.328;5.558;2023-06-14T04:00:23;2.40;;;1.50;;
7737;SDS011;29398;45.328;5.558;2023-06-14T04:01:24;1.88;;;1.50;;
7737;SDS011;29398;45.328;5.558;2023-06-14T04:02:29;3.17;;;1.60;;
7737;SDS011;29398;45.328;5.558;2023-06-14T04:03:30;3.80;;;1.70;;
7737;SDS011;29398;45.328;5.558;2023-06-14T04:04:35;5.05;;;2.15;;
7737;SDS011;29398;45.328;5.558;2023-06-14T04:05:38;2.65;;;1.95;;
7737;SDS011;29398;45.328;5.558;2023-06-14T04:06:42;3.50;;;1.80;;
7737;SDS011;29398;45.328;5.558;2023-06-14T04:07:45;4.75;;;2.10;;
7737;SDS011;29398;45.328;5.558;2023-06-14T04:08:48;2.20;;;1.80;;
7737;SDS011;29398;45.328;5.558;2023-06-14T04:09:49;2.90;;;1.60;;
7737;SDS011;29398;45.328;5.558;2023-06-14T04:10:52;2.92;;;1.98;;
7737;SDS011;29398;45.328;5.558;2023-06-14T04:11:53;4.15;;;1.92;;
7737;SDS011;29398;45.328;5.558;2023-06-14T04:12:55;5.50;;;2.17;;
7737;SDS011;29398;45.328;5.558;2023-06-14T04:13:56;1.65;;;1.48;;
7737;SDS011;29398;45.328;5.558;2023-06-14T04:14:59;5.45;;;1.70;;
7737;SDS011;29398;45.328;5.558;2023-06-14T04:16:04;7.53;;;2.10;;
7737;SDS011;29398;45.328;5.558;2023-06-14T04:17:09;4.55;;;1.60;;
7737;SDS011;29398;45.328;5.558;2023-06-14T04:18:13;1.83;;;1.73;;
7737;SDS011;29398;45.328;5.558;2023-06-14T04:19:15;2.05;;;1.63;;
7737;SDS011;29398;45.328;5.558;2023-06-14T04:20:16;4.82;;;1.85;;
7737;SDS011;29398;45.328;5.558;2023-06-14T04:21:18;5.55;;;1.88;;
7737;SDS011;29398;45.328;5.558;2023-06-14T04:22:20;2.20;;;1.23;;
7737;SDS011;29398;45.328;5.558;2023-06-14T04:23:22;2.22;;;1.35;;
7737;SDS011;29398;45.328;5.558;2023-06-14T04:24:24;3.03;;;1.70;;
7737;SDS011;29398;45.328;5.558;2023-06-14T04:25:29;8.45;;;2.17;;
7737;SDS011;29398;45.328;5.558;2023-06-14T04:26:32;4.10;;;2.10;;
7737;SDS011;29398;45.328;5.558;2023-06-14T04:27:34;4.97;;;1.83;;
7737;SDS011;29398;45.328;5.558;2023-06-14T04:28:37;3.10;;;1.80;;
7737;SDS011;29398;45.328;5.558;2023-06-14T04:29:41;3.65;;;1.98;;
7737;SDS011;29398;45.328;5.558;2023-06-14T04:30:46;4.88;;;1.92;;
7737;SDS011;29398;45.328;5.558;2023-06-14T04:31:53;1.90;;;1.65;;
7737;SDS011;29398;45.328;5.558;2023-06-14T04:32:55;3.83;;;1.80;;
7737;SDS011;29398;45.328;5.558;2023-06-14T04:33:57;2.08;;;1.63;;
7737;SDS011;29398;45.328;5.558;2023-06-14T04:34:59;3.50;;;1.85;;
7737;SDS011;29398;45.328;5.558;2023-06-14T04:36:05;4.68;;;2.20;;
7737;SDS011;29398;45.328;5.558;2023-06-14T04:37:07;4.00;;;1.95;;
7737;SDS011;29398;45.328;5.558;2023-06-14T04:38:12;2.35;;;1.90;;
7737;SDS011;29398;45.328;5.558;2023-06-14T04:39:13;4.43;;;1.70;;
7737;SDS011;29398;45.328;5.558;2023-06-14T04:40:17;4.82;;;1.80;;
7737;SDS011;29398;45.328;5.558;2023-06-14T04:41:18;3.65;;;1.63;;
7737;SDS011;29398;45.328;5.558;2023-06-14T04:42:20;3.45;;;1.90;;
7737;SDS011;29398;45.328;5.558;2023-06-14T04:43:25;5.38;;;1.73;;
7737;SDS011;29398;45.328;5.558;2023-06-14T04:44:30;4.20;;;1.95;;
7737;SDS011;29398;45.328;5.558;2023-06-14T04:45:34;3.03;;;1.70;;
7737;SDS011;29398;45.328;5.558;2023-06-14T04:46:37;6.28;;;1.70;;
7737;SDS011;29398;45.328;5.558;2023-06-14T04:47:49;3.88;;;2.47;;
7737;SDS011;29398;45.328;5.558;2023-06-14T04:48:57;5.03;;;2.03;;
7737;SDS011;29398;45.328;5.558;2023-06-14T04:50:02;4.15;;;1.98;;
7737;SDS011;29398;45.328;5.558;2023-06-14T04:51:06;4.63;;;1.88;;
7737;SDS011;29398;45.328;5.558;2023-06-14T04:52:07;1.77;;;1.58;;
7737;SDS011;29398;45.328;5.558;2023-06-14T04:53:13;3.42;;;1.83;;
7737;SDS011;29398;45.328;5.558;2023-06-14T04:54:16;3.35;;;2.00;;
7737;SDS011;29398;45.328;5.558;2023-06-14T04:55:20;3.50;;;1.90;;
7737;SDS011;29398;45.328;5.558;2023-06-14T04:56:22;2.47;;;1.90;;
7737;SDS011;29398;45.328;5.558;2023-06-14T04:57:25;1.75;;;1.65;;
7737;SDS011;29398;45.328;5.558;2023-06-14T04:58:30;2.20;;;1.63;;
7737;SDS011;29398;45.328;5.558;2023-06-14T04:59:32;2.40;;;1.90;;
7737;SDS011;29398;45.328;5.558;2023-06-14T05:00:36;3.17;;;1.80;;
7737;SDS011;29398;45.328;5.558;2023-06-14T05:01:37;2.35;;;2.15;;
7737;SDS011;29398;45.328;5.558;2023-06-14T05:02:40;2.75;;;1.75;;
7737;SDS011;29398;45.328;5.558;2023-06-14T05:03:42;2.63;;;2.33;;
7737;SDS011;29398;45.328;5.558;2023-06-14T05:04:45;2.53;;;2.15;;
7737;SDS011;29398;45.328;5.558;2023-06-14T05:05:48;2.13;;;1.92;;
7737;SDS011;29398;45.328;5.558;2023-06-14T05:06:51;3.03;;;2.00;;
7737;SDS011;29398;45.328;5.558;2023-06-14T05:07:55;3.35;;;2.00;;
7737;SDS011;29398;45.328;5.558;2023-06-14T05:08:57;4.05;;;2.17;;
7737;SDS011;29398;45.328;5.558;2023-06-14T05:09:59;3.00;;;1.90;;
7737;SDS011;29398;45.328;5.558;2023-06-14T05:11:01;2.55;;;1.73;;
7737;SDS011;29398;45.328;5.558;2023-06-14T05:12:02;2.83;;;1.67;;
7737;SDS011;29398;45.328;5.558;2023-06-14T05:13:08;2.55;;;1.80;;
7737;SDS011;29398;45.328;5.558;2023-06-14T05:14:11;2.97;;;1.95;;
7737;SDS011;29398;45.328;5.558;2023-06-14T05:15:13;2.40;;;2.00;;
7737;SDS011;29398;45.328;5.558;2023-06-14T05:16:15;2.65;;;1.85;;
7737;SDS011;29398;45.328;5.558;2023-06-14T05:17:19;4.60;;;2.10;;
7737;SDS011;29398;45.328;5.558;2023-06-14T05:18:20;4.07;;;2.45;;
7737;SDS011;29398;45.328;5.558;2023-06-14T05:19:24;4.20;;;1.75;;
7737;SDS011;29398;45.328;5.558;2023-06-14T05:20:25;2.78;;;1.85;;
7737;SDS011;29398;45.328;5.558;2023-06-14T05:21:27;1.85;;;1.40;;
7737;SDS011;29398;45.328;5.558;2023-06-14T05:22:28;2.80;;;2.10;;
7737;SDS011;29398;45.328;5.558;2023-06-14T05:23:30;2.45;;;1.70;;
7737;SDS011;29398;45.328;5.558;2023-06-14T05:24:31;2.58;;;1.52;;
7737;SDS011;29398;45.328;5.558;2023-06-14T05:25:33;3.53;;;1.50;;
7737;SDS011;29398;45.328;5.558;2023-06-14T05:26:34;1.70;;;1.60;;
7737;SDS011;29398;45.328;5.558;2023-06-14T05:27:36;5.10;;;1.63;;
7737;SDS011;29398;45.328;5.558;2023-06-14T05:28:41;3.83;;;1.58;;
7737;SDS011;29398;45.328;5.558;2023-06-14T05:29:42;2.55;;;1.90;;
7737;SDS011;29398;45.328;5.558;2023-06-14T05:30:44;3.83;;;1.88;;
7737;SDS011;29398;45.328;5.558;2023-06-14T05:31:45;2.45;;;1.88;;
7737;SDS011;29398;45.328;5.558;2023-06-14T05:32:47;4.75;;;2.05;;
7737;SDS011;29398;45.328;5.558;2023-06-14T05:33:48;1.80;;;1.70;;
7737;SDS011;29398;45.328;5.558;2023-06-14T05:34:51;3.47;;;1.80;;
7737;SDS011;29398;45.328;5.558;2023-06-14T05:35:52;1.67;;;1.58;;
7737;SDS011;29398;45.328;5.558;2023-06-14T05:36:55;3.50;;;2.08;;
7737;SDS011;29398;45.328;5.558;2023-06-14T05:37:56;2.63;;;1.65;;
7737;SDS011;29398;45.328;5.558;2023-06-14T05:38:58;2.67;;;1.58;;
7737;SDS011;29398;45.328;5.558;2023-06-14T05:40:00;2.13;;;1.65;;
7737;SDS011;29398;45.328;5.558;2023-06-14T05:41:04;2.55;;;1.80;;
7737;SDS011;29398;45.328;5.558;2023-06-14T05:42:05;1.75;;;1.63;;
7737;SDS011;29398;45.328;5.558;2023-06-14T05:43:08;2.78;;;1.65;;
7737;SDS011;29398;45.328;5.558;2023-06-14T05:44:09;3.13;;;1.77;;
7737;SDS011;29398;45.328;5.558;2023-06-14T05:45:11;3.33;;;1.70;;
7737;SDS011;29398;45.328;5.558;2023-06-14T05:46:12;3.97;;;1.60;;
7737;SDS011;29398;45.328;5.558;2023-06-14T05:47:15;2.95;;;2.22;;
7737;SDS011;29398;45.328;5.558;2023-06-14T05:48:16;3.40;;;1.90;;
7737;SDS011;29398;45.328;5.558;2023-06-14T05:49:19;2.97;;;1.60;;
7737;SDS011;29398;45.328;5.558;2023-06-14T05:50:21;2.05;;;1.85;;
7737;SDS011;29398;45.328;5.558;2023-06-14T05:51:23;1.88;;;1.60;;
7737;SDS011;29398;45.328;5.558;2023-06-14T05:52:25;3.00;;;1.85;;
7737;SDS011;29398;45.328;5.558;2023-06-14T05:53:27;2.28;;;1.92;;
7737;SDS011;29398;45.328;5.558;2023-06-14T05:54:28;2.95;;;1.90;;
7737;SDS011;29398;45.328;5.558;2023-06-14T05:55:30;5.10;;;1.90;;
7737;SDS011;29398;45.328;5.558;2023-06-14T05:56:31;3.45;;;1.63;;
7737;SDS011;29398;45.328;5.558;2023-06-14T05:57:33;3.63;;;1.60;;
7737;SDS011;29398;45.328;5.558;2023-06-14T05:58:34;3.05;;;1.83;;
7737;SDS011;29398;45.328;5.558;2023-06-14T05:59:36;1.50;;;1.40;;
7737;SDS011;29398;45.328;5.558;2023-06-14T06:00:37;1.85;;;1.73;;
7737;SDS011;29398;45.328;5.558;2023-06-14T06:01:39;2.50;;;1.90;;
7737;SDS011;29398;45.328;5.558;2023-06-14T06:02:41;2.83;;;1.48;;
7737;SDS011;29398;45.328;5.558;2023-06-14T06:03:43;7.20;;;2.08;;
7737;SDS011;29398;45.328;5.558;2023-06-14T06:04:46;1.60;;;1.50;;
7737;SDS011;29398;45.328;5.558;2023-06-14T06:05:49;3.58;;;1.60;;
7737;SDS011;29398;45.328;5.558;2023-06-14T06:06:50;2.30;;;1.63;;
7737;SDS011;29398;45.328;5.558;2023-06-14T06:07:52;3.17;;;1.88;;
7737;SDS011;29398;45.328;5.558;2023-06-14T06:08:53;4.03;;;1.70;;
7737;SDS011;29398;45.328;5.558;2023-06-14T06:09:55;4.47;;;1.40;;
7737;SDS011;29398;45.328;5.558;2023-06-14T06:10:56;2.03;;;1.60;;
7737;SDS011;29398;45.328;5.558;2023-06-14T06:12:00;1.63;;;1.52;;
7737;SDS011;29398;45.328;5.558;2023-06-14T06:13:01;2.97;;;1.60;;
7737;SDS011;29398;45.328;5.558;2023-06-14T06:14:03;7.80;;;1.90;;
7737;SDS011;29398;45.328;5.558;2023-06-14T06:15:04;2.10;;;1.63;;
7737;SDS011;29398;45.328;5.558;2023-06-14T06:16:08;6.53;;;1.90;;
7737;SDS011;29398;45.328;5.558;2023-06-14T06:17:09;2.72;;;2.22;;
7737;SDS011;29398;45.328;5.558;2023-06-14T06:18:11;1.90;;;1.80;;
7737;SDS011;29398;45.328;5.558;2023-06-14T06:19:12;4.25;;;1.80;;
7737;SDS011;29398;45.328;5.558;2023-06-14T06:20:14;3.10;;;2.10;;
7737;SDS011;29398;45.328;5.558;2023-06-14T06:21:16;3.20;;;1.92;;
7737;SDS011;29398;45.328;5.558;2023-06-14T06:22:18;4.57;;;2.22;;
7737;SDS011;29398;45.328;5.558;2023-06-14T06:23:19;3.95;;;1.92;;
7737;SDS011;29398;45.328;5.558;2023-06-14T06:24:21;2.45;;;1.60;;
7737;SDS011;29398;45.328;5.558;2023-06-14T06:25:25;3.22;;;2.00;;